PWSweather.com
Personal Weather Stations
Station Observations

AwhituWaiuku, CA 268400

Lat: -37.058, Lon: -174.6346

Elevation: 250

Station Type: Personal

http://www.weather-display.com/windy/gb/grahamsbeach.htm

High Low Average
Temperature 75.3°F24.1°F 60.0°F15.6°F 67.0°F19.4°F
Dew Point 62.0°F16.7°F 56.9°F13.8°F 59.5°F15.3°F
Winds 13.8 mph S22.2 mph S Calm Calm 5.6 mph 9.0 mph
Wind Gusts 19.6 mph31.5 mph -- 7.9 mph12.7 mph
Humidity 91% 58% 78%
Pressure 30.25 in1024.40 in 30.11 in1019.60 in -
Precipitation 0.00 in0.00 in - -
Hour Temp Dew Point Humidity Winds Wind Gusts Pressure Precip Precip Rate Daily Precip Total
12:00 AM 65.1°F18.4°C 59.8°F15.4°C 83% 8.1 mph E13.0 kmh E 10.4 mph16.7 kmh 30.25 in1024.4 mb - 0.00 in0.0 mm 0.00 in0.0 mm
12:30 AM 64.1°F17.8°C 59.2°F15.1°C 84% 4.6 mph E7.4 kmh E 8.1 mph13.0 kmh 30.24 in1024.0 mb - 0.00 in0.0 mm 0.00 in0.0 mm
01:00 AM 62.9°F17.2°C 58.3°F14.6°C 85% 3.5 mph E5.6 kmh E 3.5 mph5.6 kmh 30.24 in1024.0 mb - 0.00 in0.0 mm 0.00 in0.0 mm
01:30 AM 62.5°F16.9°C 58.6°F14.8°C 87% 5.8 mph E9.3 kmh E 8.1 mph13.0 kmh 30.23 in1023.7 mb - 0.00 in0.0 mm 0.00 in0.0 mm
02:00 AM 62.0°F16.7°C 58.1°F14.5°C 87% 6.9 mph E11.1 kmh E 9.2 mph14.8 kmh 30.22 in1023.4 mb - 0.00 in0.0 mm 0.00 in0.0 mm
02:30 AM 61.7°F16.5°C 57.8°F14.3°C 87% 8.1 mph E13.0 kmh E 10.4 mph16.7 kmh 30.23 in1023.7 mb - 0.00 in0.0 mm 0.00 in0.0 mm
03:00 AM 61.5°F16.4°C 57.9°F14.4°C 88% 6.9 mph E11.1 kmh E 9.2 mph14.8 kmh 30.21 in1023.0 mb - 0.00 in0.0 mm 0.00 in0.0 mm
03:30 AM 61.9°F16.6°C 58.6°F14.8°C 89% 6.9 mph E11.1 kmh E 11.5 mph18.5 kmh 30.20 in1022.7 mb - 0.00 in0.0 mm 0.00 in0.0 mm
04:00 AM 61.9°F16.6°C 58.6°F14.8°C 89% 6.9 mph E11.1 kmh E 9.2 mph14.8 kmh 30.20 in1022.7 mb - 0.00 in0.0 mm 0.00 in0.0 mm
04:30 AM 60.7°F15.9°C 58.1°F14.5°C 91% 8.1 mph E13.0 kmh E 9.2 mph14.8 kmh 30.20 in1022.7 mb - 0.00 in0.0 mm 0.00 in0.0 mm
05:00 AM 61.0°F16.1°C 58.4°F14.7°C 91% 6.9 mph E11.1 kmh E 9.2 mph14.8 kmh 30.20 in1022.7 mb - 0.00 in0.0 mm 0.00 in0.0 mm
05:30 AM 60.2°F15.7°C 57.3°F14.1°C 90% 6.9 mph E11.1 kmh E 9.2 mph14.8 kmh 30.20 in1022.7 mb - 0.00 in0.0 mm 0.00 in0.0 mm
06:00 AM 60.2°F15.7°C 56.9°F13.8°C 89% 4.6 mph E7.4 kmh E 8.1 mph13.0 kmh 30.20 in1022.7 mb - 0.00 in0.0 mm 0.00 in0.0 mm
06:30 AM 60.0°F15.6°C 57.1°F13.9°C 90% Calm Calm -- 30.21 in1023.0 mb - 0.00 in0.0 mm 0.00 in0.0 mm
07:00 AM 61.2°F16.2°C 58.2°F14.6°C 90% 2.3 mph E3.7 kmh E 3.5 mph5.6 kmh 30.21 in1023.0 mb - 0.00 in0.0 mm 0.00 in0.0 mm
07:30 AM 63.4°F17.4°C 59.1°F15.1°C 86% 2.3 mph E3.7 kmh E 3.5 mph5.6 kmh 30.21 in1023.0 mb - 0.00 in0.0 mm 0.00 in0.0 mm
08:00 AM 65.2°F18.4°C 59.6°F15.3°C 82% 2.3 mph E3.7 kmh E 3.5 mph5.6 kmh 30.21 in1023.0 mb - 0.00 in0.0 mm 0.00 in0.0 mm
08:30 AM 67.1°F19.5°C 58.9°F14.9°C 75% 5.8 mph E9.3 kmh E 9.2 mph14.8 kmh 30.22 in1023.4 mb - 0.00 in0.0 mm 0.00 in0.0 mm
09:00 AM 67.2°F19.6°C 59.0°F15.0°C 75% 8.1 mph SE13.0 kmh SE 10.4 mph16.7 kmh 30.23 in1023.7 mb - 0.00 in0.0 mm 0.00 in0.0 mm
09:30 AM 69.7°F20.9°C 59.8°F15.4°C 71% 5.8 mph E9.3 kmh E 9.2 mph14.8 kmh 30.22 in1023.4 mb - 0.00 in0.0 mm 0.00 in0.0 mm
10:00 AM 70.3°F21.3°C 59.2°F15.1°C 68% 2.3 mph NE3.7 kmh NE 3.5 mph5.6 kmh 30.21 in1023.0 mb - 0.00 in0.0 mm 0.00 in0.0 mm
10:30 AM 71.2°F21.8°C 60.1°F15.6°C 68% 4.6 mph E7.4 kmh E 5.8 mph9.3 kmh 30.21 in1023.0 mb - 0.00 in0.0 mm 0.00 in0.0 mm
11:00 AM 73.5°F23.1°C 60.6°F15.9°C 64% 3.5 mph E5.6 kmh E 3.5 mph5.6 kmh 30.20 in1022.7 mb - 0.00 in0.0 mm 0.00 in0.0 mm
11:30 AM 72.4°F22.4°C 60.8°F16.0°C 67% 5.8 mph E9.3 kmh E 9.2 mph14.8 kmh 30.20 in1022.7 mb - 0.00 in0.0 mm 0.00 in0.0 mm
12:00 PM 73.9°F23.3°C 60.5°F15.8°C 63% 4.6 mph E7.4 kmh E 6.9 mph11.1 kmh 30.18 in1022.0 mb - 0.00 in0.0 mm 0.00 in0.0 mm
12:30 PM 75.0°F23.9°C 59.3°F15.2°C 58% 8.1 mph E13.0 kmh E 12.7 mph20.4 kmh 30.17 in1021.7 mb - 0.00 in0.0 mm 0.00 in0.0 mm
01:00 PM 75.1°F23.9°C 59.8°F15.4°C 59% 6.9 mph E11.1 kmh E 12.7 mph20.4 kmh 30.16 in1021.3 mb - 0.00 in0.0 mm 0.00 in0.0 mm
01:30 PM 75.3°F24.1°C 59.5°F15.3°C 58% 8.1 mph E13.0 kmh E 11.5 mph18.5 kmh 30.16 in1021.3 mb - 0.00 in0.0 mm 0.00 in0.0 mm
02:00 PM 74.9°F23.8°C 59.1°F15.1°C 58% 3.5 mph ESE5.6 kmh ESE 8.1 mph13.0 kmh 30.15 in1021.0 mb - 0.00 in0.0 mm 0.00 in0.0 mm
02:30 PM 73.0°F22.8°C 61.8°F16.6°C 68% 12.7 mph S20.4 kmh S 19.6 mph31.5 kmh 30.14 in1020.7 mb - 0.00 in0.0 mm 0.00 in0.0 mm
03:00 PM 72.8°F22.7°C 61.6°F16.4°C 68% 13.8 mph S22.2 kmh S 17.3 mph27.8 kmh 30.14 in1020.7 mb - 0.00 in0.0 mm 0.00 in0.0 mm
03:30 PM 73.1°F22.8°C 61.9°F16.6°C 68% 11.5 mph S18.5 kmh S 16.1 mph25.9 kmh 30.13 in1020.3 mb - 0.00 in0.0 mm 0.00 in0.0 mm
04:00 PM 71.0°F21.7°C 61.1°F16.2°C 71% 10.4 mph S16.7 kmh S 15.0 mph24.1 kmh 30.13 in1020.3 mb - 0.00 in0.0 mm 0.00 in0.0 mm
04:30 PM 72.4°F22.4°C 62.0°F16.7°C 70% 11.5 mph S18.5 kmh S 15.0 mph24.1 kmh 30.12 in1020.0 mb - 0.00 in0.0 mm 0.00 in0.0 mm
05:00 PM 69.9°F21.1°C 61.2°F16.2°C 74% 13.8 mph S22.2 kmh S 19.6 mph31.5 kmh 30.11 in1019.6 mb - 0.00 in0.0 mm 0.00 in0.0 mm
05:30 PM 70.7°F21.5°C 61.6°F16.4°C 73% 9.2 mph S14.8 kmh S 9.2 mph14.8 kmh 30.11 in1019.6 mb - 0.00 in0.0 mm 0.00 in0.0 mm
06:00 PM 69.8°F21.0°C 61.2°F16.2°C 74% 8.1 mph S13.0 kmh S 10.4 mph16.7 kmh 30.12 in1020.0 mb - 0.00 in0.0 mm 0.00 in0.0 mm
06:30 PM 68.8°F20.4°C 60.5°F15.8°C 75% 5.8 mph S9.3 kmh S 8.1 mph13.0 kmh 30.13 in1020.3 mb - 0.00 in0.0 mm 0.00 in0.0 mm
07:00 PM 68.0°F20.0°C 60.5°F15.8°C 77% 4.6 mph S7.4 kmh S 6.9 mph11.1 kmh 30.13 in1020.3 mb - 0.00 in0.0 mm 0.00 in0.0 mm
07:30 PM 66.6°F19.2°C 60.3°F15.7°C 80% 2.3 mph S3.7 kmh S 4.6 mph7.4 kmh 30.14 in1020.7 mb - 0.00 in0.0 mm 0.00 in0.0 mm
08:00 PM 66.0°F18.9°C 60.0°F15.6°C 81% 2.3 mph S3.7 kmh S 3.5 mph5.6 kmh 30.14 in1020.7 mb - 0.00 in0.0 mm 0.00 in0.0 mm
08:30 PM 66.1°F18.9°C 60.1°F15.6°C 81% 4.6 mph SSW7.4 kmh SSW 5.8 mph9.3 kmh 30.15 in1021.0 mb - 0.00 in0.0 mm 0.00 in0.0 mm
09:00 PM 65.8°F18.8°C 59.8°F15.4°C 81% Calm Calm -- 30.16 in1021.3 mb - 0.00 in0.0 mm 0.00 in0.0 mm
09:30 PM 65.3°F18.5°C 59.3°F15.2°C 81% Calm Calm -- 30.16 in1021.3 mb - 0.00 in0.0 mm 0.00 in0.0 mm
10:00 PM 65.3°F18.5°C 59.3°F15.2°C 81% Calm Calm -- 30.15 in1021.0 mb - 0.00 in0.0 mm 0.00 in0.0 mm
10:30 PM 64.4°F18.0°C 59.5°F15.3°C 84% Calm Calm -- 30.15 in1021.0 mb - 0.00 in0.0 mm 0.00 in0.0 mm
11:00 PM 64.0°F17.8°C 59.1°F15.1°C 84% Calm Calm -- 30.14 in1020.7 mb - 0.00 in0.0 mm 0.00 in0.0 mm
11:30 PM 63.2°F17.3°C 58.9°F14.9°C 86% Calm Calm -- 30.13 in1020.3 mb - 0.00 in0.0 mm 0.00 in0.0 mm